createdAt,value
2023-04-15T00:01:19.935Z,99.90
2023-04-15T00:03:52.693Z,99.90
2023-04-15T00:06:21.628Z,99.90
2023-04-15T00:08:50.781Z,99.50
2023-04-15T00:11:20.343Z,99.40
2023-04-15T00:13:52.084Z,99.50
2023-04-15T00:16:20.761Z,99.60
2023-04-15T00:18:51.215Z,99.90
2023-04-15T00:21:20.173Z,99.90
2023-04-15T00:23:52.695Z,99.90
2023-04-15T00:26:21.510Z,99.50
2023-04-15T00:28:51.900Z,99.60
2023-04-15T00:31:21.229Z,99.90
2023-04-15T00:33:51.931Z,99.90
2023-04-15T00:36:20.476Z,99.90
2023-04-15T00:38:49.507Z,99.90
2023-04-15T00:41:19.408Z,99.90
2023-04-15T00:43:48.409Z,99.90
2023-04-15T00:46:20.816Z,99.90
2023-04-15T00:48:52.898Z,99.90
2023-04-15T00:51:21.996Z,99.90
2023-04-15T00:53:54.559Z,99.90
2023-04-15T00:56:24.897Z,99.90
2023-04-15T00:58:53.904Z,99.90
2023-04-15T01:01:23.702Z,99.90
2023-04-15T01:03:54.425Z,99.90
2023-04-15T01:06:23.062Z,99.90
2023-04-15T01:08:52.177Z,99.90
2023-04-15T01:11:21.139Z,99.90
2023-04-15T01:13:50.457Z,99.90
2023-04-15T01:16:20.498Z,99.90
2023-04-15T01:18:49.190Z,99.90
2023-04-15T01:21:20.085Z,99.90
2023-04-15T01:23:50.026Z,99.90
2023-04-15T01:26:20.645Z,99.90
2023-04-15T01:28:49.255Z,99.90
2023-04-15T01:31:18.534Z,99.90
2023-04-15T01:33:48.236Z,99.90
2023-04-15T01:36:17.065Z,99.90
2023-04-15T01:38:45.852Z,99.90
2023-04-15T01:41:16.496Z,99.90
2023-04-15T01:43:48.382Z,99.90
2023-04-15T01:46:17.382Z,99.90
2023-04-15T01:48:46.374Z,99.90
2023-04-15T01:51:15.654Z,99.90
2023-04-15T01:53:44.527Z,99.90
2023-04-15T01:56:14.755Z,99.90
2023-04-15T01:58:47.312Z,99.90
2023-04-15T02:01:17.135Z,99.90
2023-04-15T02:03:46.162Z,99.90
2023-04-15T02:06:14.867Z,99.90
2023-04-15T02:08:43.617Z,99.90
2023-04-15T02:11:12.545Z,99.90
2023-04-15T02:13:41.912Z,99.90
2023-04-15T02:16:19.618Z,99.90
2023-04-15T02:18:48.606Z,99.90
2023-04-15T02:21:19.133Z,99.90
2023-04-15T02:23:48.531Z,99.90
2023-04-15T02:26:17.211Z,99.90
2023-04-15T02:28:45.874Z,99.90
2023-04-15T02:31:18.538Z,99.90
2023-04-15T02:33:47.236Z,99.90
2023-04-15T02:36:16.292Z,99.90
2023-04-15T02:38:46.127Z,99.90
2023-04-15T02:41:16.669Z,99.90
2023-04-15T02:43:47.283Z,99.90
2023-04-15T02:46:18.010Z,99.90
2023-04-15T02:48:46.936Z,99.90
2023-04-15T02:51:16.885Z,99.90
2023-04-15T02:53:45.816Z,99.90
2023-04-15T02:56:15.408Z,99.90
2023-04-15T02:58:44.857Z,99.90
2023-04-15T03:01:13.872Z,99.90
2023-04-15T03:03:45.429Z,99.90
2023-04-15T03:06:14.244Z,99.90
2023-04-15T03:08:43.280Z,99.90
2023-04-15T03:11:14.380Z,99.90
2023-04-15T03:13:43.471Z,99.90
2023-04-15T03:16:23.033Z,99.90
2023-04-15T03:18:53.233Z,99.90
2023-04-15T03:21:24.120Z,99.90
2023-04-15T03:23:52.909Z,99.90
2023-04-15T03:26:29.684Z,99.90
2023-04-15T03:29:02.552Z,99.90
2023-04-15T03:31:31.763Z,99.90
2023-04-15T03:34:02.368Z,99.90
2023-04-15T03:36:33.506Z,99.90
2023-04-15T03:39:04.394Z,99.90
2023-04-15T03:41:33.817Z,99.90
2023-04-15T03:44:02.286Z,99.90
2023-04-15T03:46:31.351Z,99.90
2023-04-15T03:49:02.115Z,99.90
2023-04-15T03:51:31.540Z,99.90
2023-04-15T03:54:00.209Z,99.90
2023-04-15T03:56:28.993Z,99.90
2023-04-15T03:58:57.890Z,99.90
2023-04-15T04:01:26.661Z,99.90
2023-04-15T04:03:55.456Z,99.90
2023-04-15T04:06:26.623Z,99.90
2023-04-15T04:08:55.208Z,99.90
2023-04-15T04:11:23.779Z,99.90
2023-04-15T04:13:52.351Z,99.90
2023-04-15T04:16:21.169Z,99.90
2023-04-15T04:18:49.885Z,99.90
2023-04-15T04:21:18.705Z,99.90
2023-04-15T04:23:49.086Z,99.90
2023-04-15T04:26:17.837Z,99.90
2023-04-15T04:28:46.754Z,99.90
2023-04-15T04:31:15.628Z,99.90
2023-04-15T04:33:44.446Z,99.90
2023-04-15T04:36:13.138Z,99.90
2023-04-15T04:38:42.151Z,99.90
2023-04-15T04:41:12.790Z,99.90
2023-04-15T04:43:41.498Z,99.90
2023-04-15T04:46:10.742Z,99.90
2023-04-15T04:48:39.804Z,99.90
2023-04-15T04:51:09.753Z,99.90
2023-04-15T04:53:38.707Z,99.90
2023-04-15T04:56:07.500Z,99.90
2023-04-15T04:58:38.532Z,99.90
2023-04-15T05:01:07.306Z,99.90
2023-04-15T05:03:36.186Z,99.90
2023-04-15T05:06:06.692Z,99.90
2023-04-15T05:08:35.652Z,99.90
2023-04-15T05:11:04.501Z,99.90
2023-04-15T05:13:33.326Z,99.90
2023-04-15T05:16:03.739Z,99.90
2023-04-15T05:18:32.831Z,99.90
2023-04-15T05:21:01.768Z,99.90
2023-04-15T05:23:31.047Z,99.90
2023-04-15T05:25:59.874Z,99.90
2023-04-15T05:28:28.954Z,99.90
2023-04-15T05:30:57.779Z,99.90
2023-04-15T05:33:28.368Z,99.90
2023-04-15T05:35:57.070Z,99.90
2023-04-15T05:38:26.315Z,99.90
2023-04-15T05:40:55.268Z,99.90
2023-04-15T05:43:24.255Z,99.90
2023-04-15T05:45:52.906Z,99.90
2023-04-15T05:48:21.767Z,99.90
2023-04-15T05:50:51.981Z,99.90
2023-04-15T05:53:20.896Z,99.90
2023-04-15T05:55:49.581Z,99.90
2023-04-15T05:58:18.188Z,99.90
2023-04-15T06:00:46.717Z,99.90
2023-04-15T06:03:15.836Z,99.90
2023-04-15T06:05:45.439Z,99.90
2023-04-15T06:08:15.861Z,99.90
2023-04-15T06:10:44.747Z,99.90
2023-04-15T06:13:15.216Z,99.90
2023-04-15T06:15:44.140Z,99.90
2023-04-15T06:18:13.286Z,99.90
2023-04-15T06:20:42.616Z,99.90
2023-04-15T06:23:11.496Z,99.90
2023-04-15T06:25:41.819Z,99.90
2023-04-15T06:28:10.724Z,99.90
2023-04-15T06:30:40.176Z,99.90
2023-04-15T06:33:09.886Z,99.90
2023-04-15T06:35:39.300Z,99.90
2023-04-15T06:38:08.114Z,99.90
2023-04-15T06:40:37.316Z,99.90
2023-04-15T06:43:08.144Z,99.90
2023-04-15T06:45:36.896Z,99.90
2023-04-15T06:48:07.106Z,99.90
2023-04-15T06:50:36.168Z,99.90
2023-04-15T06:53:04.818Z,99.90
2023-04-15T06:55:34.152Z,99.90
2023-04-15T06:58:03.174Z,99.70
2023-04-15T07:00:33.993Z,99.30
2023-04-15T07:03:03.997Z,98.40
2023-04-15T07:05:33.987Z,97.60
2023-04-15T07:08:04.486Z,97.20
2023-04-15T07:10:33.700Z,96.90
2023-04-15T07:13:02.293Z,96.20
2023-04-15T07:15:32.584Z,96.20
2023-04-15T07:18:01.517Z,95.40
2023-04-15T07:20:30.194Z,94.70
2023-04-15T07:22:59.260Z,94.70
2023-04-15T07:25:28.093Z,94.90
2023-04-15T07:27:57.156Z,93.70
2023-04-15T07:30:25.627Z,93.50
2023-04-15T07:32:56.253Z,92.70
2023-04-15T07:35:25.814Z,93.00
2023-04-15T07:37:54.216Z,92.60
2023-04-15T07:40:22.635Z,92.20
2023-04-15T07:42:51.583Z,91.80
2023-04-15T07:45:20.191Z,91.80
2023-04-15T07:47:48.875Z,91.30
2023-04-15T07:50:20.012Z,91.80
2023-04-15T07:52:50.197Z,91.60
2023-04-15T07:55:21.491Z,90.70
2023-04-15T07:57:50.451Z,90.90
2023-04-15T08:00:19.409Z,90.90
2023-04-15T08:02:48.616Z,91.30
2023-04-15T08:05:19.234Z,90.60
2023-04-15T08:07:47.968Z,91.10
2023-04-15T08:10:19.806Z,90.90
2023-04-15T08:12:49.722Z,91.00
2023-04-15T08:15:18.660Z,90.10
2023-04-15T08:17:47.357Z,90.30
2023-04-15T08:20:16.093Z,89.80
2023-04-15T08:22:47.933Z,89.60
2023-04-15T08:25:16.866Z,89.60
2023-04-15T08:27:45.870Z,88.90
2023-04-15T08:30:14.924Z,88.30
2023-04-15T08:32:44.114Z,87.90
2023-04-15T08:35:12.826Z,87.30
2023-04-15T08:37:41.717Z,86.80
2023-04-15T08:40:13.887Z,86.60
2023-04-15T08:42:46.481Z,86.30
2023-04-15T08:45:15.292Z,86.20
2023-04-15T08:47:47.248Z,86.30
2023-04-15T08:50:17.231Z,86.40
2023-04-15T08:52:46.272Z,86.30
2023-04-15T08:55:18.096Z,86.40
2023-04-15T08:57:47.504Z,86.40
2023-04-15T09:00:17.462Z,86.40
2023-04-15T09:02:46.955Z,86.70
2023-04-15T09:05:16.627Z,86.00
2023-04-15T09:07:45.606Z,85.10
2023-04-15T09:10:16.255Z,86.20
2023-04-15T09:12:45.199Z,86.20
2023-04-15T09:15:14.504Z,85.50
2023-04-15T09:17:45.948Z,85.40
2023-04-15T09:20:16.983Z,85.40
2023-04-15T09:22:49.302Z,85.60
2023-04-15T09:25:34.788Z,84.90
2023-04-15T09:28:05.544Z,84.60
2023-04-15T09:30:34.910Z,84.10
2023-04-15T09:33:08.779Z,85.00
2023-04-15T09:35:38.187Z,83.70
2023-04-15T09:38:08.356Z,83.80
2023-04-15T09:40:40.470Z,83.00
2023-04-15T09:43:10.997Z,83.10
2023-04-15T09:45:39.995Z,84.40
2023-04-15T09:48:21.022Z,84.20
2023-04-15T09:50:50.852Z,83.70
2023-04-15T09:53:20.572Z,83.70
2023-04-15T09:55:54.726Z,84.90
2023-04-15T09:58:24.814Z,86.10
2023-04-15T10:00:54.875Z,86.40
2023-04-15T10:03:26.132Z,86.20
2023-04-15T10:05:56.517Z,86.20
2023-04-15T10:08:27.630Z,83.40
2023-04-15T10:10:59.150Z,82.70
2023-04-15T10:13:29.719Z,82.60
2023-04-15T10:16:00.497Z,82.10
2023-04-15T10:18:30.436Z,82.20
2023-04-15T10:20:59.679Z,81.50
2023-04-15T10:23:29.307Z,79.80
2023-04-15T10:26:00.165Z,80.10
2023-04-15T10:28:29.429Z,82.20
2023-04-15T10:30:59.443Z,83.70
2023-04-15T10:33:29.570Z,84.60
2023-04-15T10:35:58.370Z,86.10
2023-04-15T10:38:38.059Z,86.40
2023-04-15T10:41:21.121Z,86.20
2023-04-15T10:43:53.164Z,85.60
2023-04-15T10:46:25.852Z,85.00
2023-04-15T10:48:55.262Z,84.80
2023-04-15T10:51:33.092Z,86.20
2023-04-15T10:54:02.285Z,86.80
2023-04-15T10:56:32.950Z,87.60
2023-04-15T10:59:02.924Z,88.20
2023-04-15T11:01:53.594Z,88.80
2023-04-15T11:04:57.680Z,88.80
2023-04-15T11:07:37.083Z,88.60
2023-04-15T11:10:21.323Z,89.30
2023-04-15T11:12:53.804Z,89.20
2023-04-15T11:15:31.421Z,88.40
2023-04-15T11:18:02.033Z,87.60
2023-04-15T11:20:31.115Z,87.40
2023-04-15T11:23:13.034Z,86.60
2023-04-15T11:25:45.268Z,86.60
2023-04-15T11:28:16.391Z,87.20
2023-04-15T11:30:45.326Z,87.90
2023-04-15T11:33:14.564Z,88.10
2023-04-15T11:35:44.373Z,88.00
2023-04-15T11:38:15.661Z,88.20
2023-04-15T11:40:46.996Z,87.40
2023-04-15T11:43:21.106Z,86.70
2023-04-15T11:45:52.982Z,87.40
2023-04-15T11:48:23.017Z,88.50
2023-04-15T11:50:56.174Z,88.90
2023-04-15T11:53:25.694Z,88.70
2023-04-15T11:55:55.730Z,88.40
2023-04-15T11:58:28.145Z,87.70
2023-04-15T12:00:59.041Z,86.70
2023-04-15T12:03:29.400Z,86.10
2023-04-15T12:06:17.113Z,86.50
2023-04-15T12:09:00.461Z,87.30
2023-04-15T12:11:31.513Z,87.80
2023-04-15T12:14:06.266Z,87.50
2023-04-15T12:16:48.990Z,87.90
2023-04-15T12:19:22.547Z,87.80
2023-04-15T12:21:52.035Z,87.20
2023-04-15T12:24:24.150Z,87.20
2023-04-15T12:26:55.192Z,87.90
2023-04-15T12:29:29.108Z,88.80
2023-04-15T12:31:59.254Z,89.40
2023-04-15T12:34:29.682Z,90.20
2023-04-15T12:37:00.551Z,90.50
2023-04-15T12:39:31.498Z,90.30
2023-04-15T12:42:01.831Z,90.70
2023-04-15T12:44:32.712Z,90.00
2023-04-15T12:47:01.828Z,89.30
2023-04-15T12:49:31.029Z,90.00
2023-04-15T12:52:01.512Z,90.10
2023-04-15T12:54:30.827Z,90.30
2023-04-15T12:57:00.155Z,90.70
2023-04-15T12:59:29.237Z,91.10
2023-04-15T13:02:00.974Z,91.80
2023-04-15T13:04:31.609Z,91.80
2023-04-15T13:07:00.338Z,90.90
2023-04-15T13:09:29.043Z,90.70
2023-04-15T13:11:58.394Z,90.00
2023-04-15T13:14:27.179Z,90.10
2023-04-15T14:24:43.323Z,91.70
2023-04-15T14:27:12.887Z,92.10
2023-04-15T14:29:41.836Z,91.90
2023-04-15T14:32:12.027Z,92.60
2023-04-15T14:34:41.522Z,92.80
2023-04-15T14:38:12.748Z,93.10
2023-04-15T14:44:53.019Z,93.40
2023-04-15T14:48:00.030Z,93.50
2023-04-15T14:53:56.254Z,93.50
2023-04-15T14:56:38.193Z,93.90
2023-04-15T14:59:27.870Z,94.60
2023-04-15T15:02:08.209Z,95.20
2023-04-15T15:04:52.691Z,96.10
2023-04-15T15:07:30.938Z,96.30
2023-04-15T15:10:03.787Z,96.40
2023-04-15T15:12:58.015Z,96.90
2023-04-15T15:15:29.402Z,96.90
2023-04-15T15:18:54.536Z,97.20
2023-04-15T15:21:35.038Z,97.80
2023-04-15T15:24:18.339Z,99.10
2023-04-15T15:27:38.336Z,99.40
2023-04-15T15:33:29.556Z,99.90
2023-04-15T15:36:03.000Z,99.90
2023-04-15T15:38:54.166Z,99.90
2023-04-15T15:41:26.584Z,99.90
2023-04-15T15:44:00.765Z,99.90
2023-04-15T15:46:35.374Z,99.90
2023-04-15T15:49:11.715Z,99.90
2023-04-15T15:51:50.595Z,99.90
2023-04-15T15:54:23.296Z,99.90
2023-04-15T15:56:57.770Z,99.90
2023-04-15T15:59:42.672Z,99.90
2023-04-15T16:02:45.800Z,99.90
2023-04-15T16:29:07.525Z,99.90
2023-04-15T17:55:33.832Z,99.90
2023-04-15T17:58:57.481Z,99.90
2023-04-15T18:01:53.670Z,99.90
2023-04-15T18:06:39.204Z,99.90
2023-04-15T18:09:04.846Z,99.90
2023-04-15T18:11:58.220Z,99.90
2023-04-15T18:14:38.308Z,99.90
2023-04-15T18:17:28.033Z,99.90
2023-04-15T18:20:12.379Z,99.90
2023-04-15T18:22:59.273Z,99.90
2023-04-15T18:45:23.322Z,99.90
2023-04-15T20:07:31.928Z,99.90
2023-04-15T20:10:02.515Z,99.90
2023-04-15T20:12:51.058Z,99.90
2023-04-15T20:15:56.346Z,99.90
2023-04-15T20:19:09.544Z,99.90
2023-04-15T21:23:29.047Z,99.90
2023-04-15T21:26:00.975Z,99.90
2023-04-15T21:28:30.412Z,99.90
2023-04-15T21:30:59.419Z,99.90
2023-04-15T21:33:28.535Z,99.90
2023-04-15T21:35:57.145Z,99.90
2023-04-15T21:38:28.682Z,99.90
2023-04-15T21:40:58.058Z,99.90
2023-04-15T21:43:28.494Z,99.90
2023-04-15T21:46:23.259Z,99.90
2023-04-15T21:48:46.522Z,99.90
2023-04-15T21:51:15.608Z,99.90
2023-04-15T21:53:46.353Z,99.90
2023-04-15T21:56:15.219Z,99.90
2023-04-15T21:58:47.197Z,99.90
2023-04-15T22:01:17.031Z,99.90
2023-04-15T22:03:46.357Z,99.90
2023-04-15T22:06:15.626Z,99.90
2023-04-15T22:08:53.080Z,99.90
2023-04-15T22:11:27.439Z,99.90
2023-04-15T22:13:58.413Z,99.90
2023-04-15T22:16:27.473Z,99.90
2023-04-15T22:18:56.159Z,99.90
2023-04-15T22:21:25.058Z,99.90
2023-04-15T22:24:34.465Z,99.90
2023-04-15T22:26:45.705Z,99.90
2023-04-15T22:29:15.867Z,99.90
2023-04-15T22:31:45.023Z,99.90
2023-04-15T22:34:14.934Z,99.90
2023-04-15T22:36:43.490Z,99.90
2023-04-15T22:39:12.181Z,99.90
2023-04-15T22:41:40.902Z,99.90
2023-04-15T22:44:09.781Z,99.90
2023-04-15T22:46:40.358Z,99.90
2023-04-15T22:49:10.458Z,99.90
2023-04-15T22:51:39.297Z,99.90
2023-04-15T22:54:07.979Z,99.90
2023-04-15T22:56:36.556Z,99.90
2023-04-15T22:59:05.424Z,99.90
2023-04-15T23:01:33.993Z,99.90
2023-04-15T23:04:05.970Z,99.90
2023-04-15T23:06:38.125Z,99.90
2023-04-15T23:09:06.933Z,99.90
2023-04-15T23:11:35.532Z,99.90
2023-04-15T23:14:04.121Z,99.90
2023-04-15T23:16:32.724Z,99.90
2023-04-15T23:19:01.592Z,99.90
2023-04-15T23:21:31.889Z,99.90
2023-04-15T23:24:00.526Z,99.90
2023-04-15T23:26:29.132Z,99.90
2023-04-15T23:28:58.032Z,99.90
2023-04-15T23:31:27.021Z,99.90
2023-04-15T23:33:55.526Z,99.90
2023-04-15T23:36:24.086Z,99.90
2023-04-15T23:38:54.258Z,99.90
2023-04-15T23:41:23.469Z,99.90
2023-04-15T23:43:55.273Z,99.90
2023-04-15T23:46:23.852Z,99.90
2023-04-15T23:48:52.721Z,99.90
2023-04-15T23:51:21.901Z,99.90
2023-04-15T23:53:52.754Z,99.90
2023-04-15T23:56:23.075Z,99.90
2023-04-15T23:58:51.665Z,99.90
